createdAt,value
2023-05-02T00:00:01.438Z,7.37
2023-05-02T00:03:09.110Z,7.41
2023-05-02T00:06:13.276Z,7.37
2023-05-02T00:09:17.353Z,7.35
2023-05-02T00:12:20.927Z,7.00
2023-05-02T00:15:25.101Z,7.01
2023-05-02T00:18:28.491Z,7.13
2023-05-02T00:21:33.892Z,7.30
2023-05-02T00:24:37.796Z,7.23
2023-05-02T00:27:41.166Z,7.42
2023-05-02T00:30:47.959Z,7.76
2023-05-02T00:33:51.427Z,7.72
2023-05-02T00:36:54.338Z,7.71
2023-05-02T00:39:57.957Z,7.54
2023-05-02T00:43:01.929Z,7.46
2023-05-02T00:46:06.398Z,7.54
2023-05-02T00:49:10.634Z,7.85
2023-05-02T00:52:14.629Z,7.93
2023-05-02T00:55:18.777Z,8.04
2023-05-02T00:58:22.543Z,8.04
2023-05-02T01:01:48.267Z,8.48
2023-05-02T01:05:28.731Z,8.45
2023-05-02T01:08:45.888Z,8.51
2023-05-02T01:11:50.692Z,8.31
2023-05-02T01:14:57.863Z,8.36
2023-05-02T01:18:03.951Z,8.20
2023-05-02T01:21:10.520Z,8.22
2023-05-02T01:24:26.225Z,8.59
2023-05-02T01:28:07.288Z,8.56
2023-05-02T01:31:13.199Z,8.78
2023-05-02T01:34:19.809Z,8.94
2023-05-02T01:37:25.193Z,9.09
2023-05-02T01:40:29.022Z,9.00
2023-05-02T01:43:35.683Z,8.62
2023-05-02T01:46:43.512Z,9.16
2023-05-02T01:49:48.657Z,9.40
2023-05-02T01:52:54.556Z,9.48
2023-05-02T01:56:00.528Z,9.19
2023-05-02T01:59:09.299Z,8.90
2023-05-02T02:02:15.454Z,8.50
2023-05-02T02:05:22.934Z,8.56
2023-05-02T02:08:27.238Z,8.57
2023-05-02T02:12:18.848Z,8.41
2023-05-02T02:15:27.007Z,8.22
2023-05-02T02:18:31.938Z,8.43
2023-05-02T02:21:37.306Z,8.34
2023-05-02T02:24:41.992Z,8.37
2023-05-02T02:27:46.111Z,8.24
2023-05-02T02:30:49.796Z,8.41
2023-05-02T02:33:53.295Z,8.77
2023-05-02T02:37:06.346Z,8.54
2023-05-02T02:40:29.526Z,8.84
2023-05-02T02:43:51.951Z,8.55
2023-05-02T02:47:15.272Z,8.53
2023-05-02T02:50:30.753Z,8.47
2023-05-02T02:53:45.044Z,8.24
2023-05-02T02:56:51.274Z,8.50
2023-05-02T03:00:12.322Z,9.08
2023-05-02T03:03:18.363Z,9.17
2023-05-02T03:06:22.811Z,9.04
2023-05-02T03:09:31.043Z,8.89
2023-05-02T03:12:35.626Z,9.10
2023-05-02T03:15:52.816Z,9.12
2023-05-02T03:19:04.349Z,9.50
2023-05-02T03:22:08.761Z,9.80
2023-05-02T03:25:13.463Z,9.22
2023-05-02T03:28:21.830Z,8.87
2023-05-02T03:31:27.936Z,8.52
2023-05-02T03:34:31.766Z,8.58
2023-05-02T03:37:36.652Z,8.83
2023-05-02T03:40:40.454Z,8.78
2023-05-02T03:43:47.149Z,8.87
2023-05-02T03:46:52.753Z,9.23
2023-05-02T03:49:57.108Z,9.43
2023-05-02T03:53:01.777Z,9.46
2023-05-02T03:56:20.612Z,9.50
2023-05-02T03:59:36.185Z,9.49
2023-05-02T04:02:48.821Z,8.80
2023-05-02T04:05:57.023Z,8.70
2023-05-02T04:09:00.885Z,8.84
2023-05-02T04:12:12.965Z,8.57
2023-05-02T04:15:19.390Z,8.83
2023-05-02T04:18:24.828Z,8.68
2023-05-02T04:21:29.131Z,8.61
2023-05-02T04:24:33.436Z,8.41
2023-05-02T04:27:37.261Z,8.20
2023-05-02T04:30:43.603Z,8.58
2023-05-02T04:33:49.499Z,9.12
2023-05-02T04:36:56.487Z,8.73
2023-05-02T04:40:01.831Z,8.70
2023-05-02T04:43:07.559Z,8.90
2023-05-02T04:46:20.131Z,8.72
2023-05-02T04:49:23.515Z,8.57
2023-05-02T04:52:27.306Z,8.54
2023-05-02T04:55:31.465Z,8.65
2023-05-02T04:58:35.763Z,8.75
2023-05-02T05:01:42.442Z,8.92
2023-05-02T05:04:46.664Z,9.10
2023-05-02T05:07:53.640Z,9.30
2023-05-02T05:10:58.964Z,9.70
2023-05-02T05:14:05.020Z,9.83
2023-05-02T05:17:10.666Z,9.40
2023-05-02T05:20:14.612Z,9.82
2023-05-02T05:23:18.614Z,10.01
2023-05-02T05:26:23.227Z,11.37
2023-05-02T05:29:28.065Z,12.04
2023-05-02T05:32:31.741Z,13.44
2023-05-02T05:35:34.880Z,15.43
2023-05-02T05:38:39.598Z,16.92
2023-05-02T05:41:44.655Z,20.76
2023-05-02T05:44:50.070Z,20.01
2023-05-02T05:47:56.383Z,20.53
2023-05-02T05:51:06.719Z,20.95
2023-05-02T05:54:10.417Z,18.91
2023-05-02T05:57:15.342Z,20.40
2023-05-02T06:00:19.649Z,20.13
2023-05-02T06:03:27.424Z,19.97
2023-05-02T06:06:32.755Z,22.37
2023-05-02T06:09:36.033Z,20.87
2023-05-02T06:12:40.577Z,20.73
2023-05-02T06:15:45.252Z,18.55
2023-05-02T06:18:51.894Z,15.99
2023-05-02T06:21:54.903Z,17.78
2023-05-02T06:24:58.653Z,16.20
2023-05-02T06:28:02.471Z,13.65
2023-05-02T06:31:07.215Z,14.19
2023-05-02T06:34:10.237Z,12.39
2023-05-02T06:37:13.533Z,11.82
2023-05-02T06:40:17.312Z,11.62
2023-05-02T06:43:22.136Z,11.99
2023-05-02T06:46:30.627Z,12.14
2023-05-02T06:49:34.610Z,12.31
2023-05-02T06:52:38.643Z,12.42
2023-05-02T06:55:41.792Z,11.53
2023-05-02T06:58:45.740Z,11.68
2023-05-02T07:01:49.431Z,11.60
2023-05-02T07:04:52.749Z,11.68
2023-05-02T07:07:56.496Z,12.46
2023-05-02T07:11:00.491Z,12.35
2023-05-02T07:14:04.125Z,14.09
2023-05-02T07:17:07.864Z,14.05
2023-05-02T07:20:12.668Z,12.72
2023-05-02T07:23:16.076Z,12.05
2023-05-02T07:26:20.563Z,11.46
2023-05-02T07:29:24.967Z,11.30
2023-05-02T07:32:28.470Z,12.07
2023-05-02T07:35:32.764Z,14.86
2023-05-02T07:38:36.080Z,17.34
2023-05-02T07:41:39.201Z,16.43
2023-05-02T07:44:42.458Z,17.47
2023-05-02T07:47:47.739Z,14.99
2023-05-02T07:50:51.472Z,13.96
2023-05-02T07:53:58.859Z,14.66
2023-05-02T07:57:03.952Z,15.59
2023-05-02T08:00:12.632Z,17.17
2023-05-02T08:03:18.771Z,15.95
2023-05-02T08:06:22.869Z,14.72
2023-05-02T08:09:26.228Z,13.97
2023-05-02T08:12:29.595Z,12.63
2023-05-02T08:15:33.410Z,12.37
2023-05-02T08:18:36.401Z,11.78
2023-05-02T08:21:40.489Z,11.80
2023-05-02T08:24:44.199Z,11.48
2023-05-02T08:27:47.925Z,11.30
2023-05-02T08:30:51.881Z,10.73
2023-05-02T08:33:55.588Z,10.48
2023-05-02T08:36:58.737Z,10.42
2023-05-02T08:40:02.489Z,11.80
2023-05-02T08:43:09.048Z,16.40
2023-05-02T08:46:14.267Z,13.55
2023-05-02T08:49:19.012Z,12.59
2023-05-02T08:52:22.782Z,12.29
2023-05-02T08:55:28.388Z,11.65
2023-05-02T08:58:32.319Z,11.42
2023-05-02T09:01:37.185Z,11.25
2023-05-02T09:04:44.056Z,11.64
2023-05-02T09:07:49.943Z,12.35
2023-05-02T09:10:53.895Z,11.48
2023-05-02T09:13:59.429Z,11.29
2023-05-02T09:17:03.937Z,12.54
2023-05-02T09:20:08.650Z,12.16
2023-05-02T09:23:12.198Z,11.78
2023-05-02T09:26:29.543Z,11.42
2023-05-02T09:29:39.616Z,11.13
2023-05-02T09:32:47.486Z,10.85
2023-05-02T09:35:57.305Z,10.53
2023-05-02T09:39:14.264Z,10.49
2023-05-02T09:42:33.675Z,10.70
2023-05-02T09:45:37.401Z,10.38
2023-05-02T09:48:53.276Z,10.20
2023-05-02T09:52:12.083Z,9.93
2023-05-02T09:55:23.484Z,10.23
2023-05-02T09:58:26.844Z,10.23
2023-05-02T10:01:30.532Z,10.12
2023-05-02T10:04:35.095Z,10.02
2023-05-02T10:07:39.793Z,9.69
2023-05-02T10:10:57.633Z,9.72
2023-05-02T10:14:01.179Z,9.53
2023-05-02T10:17:14.757Z,9.53
2023-05-02T10:20:28.642Z,11.09
2023-05-02T10:23:34.154Z,12.00
2023-05-02T10:26:37.653Z,11.47
2023-05-02T10:29:43.086Z,10.45
2023-05-02T10:32:49.627Z,9.92
2023-05-02T10:35:54.213Z,9.42
2023-05-02T10:38:57.952Z,9.54
2023-05-02T10:42:04.153Z,9.53
2023-05-02T10:45:31.334Z,9.58
2023-05-02T10:48:35.118Z,9.58
2023-05-02T10:51:41.702Z,9.39
2023-05-02T10:54:44.835Z,9.25
2023-05-02T10:58:21.842Z,9.26
2023-05-02T11:01:38.383Z,8.99
2023-05-02T11:05:05.891Z,9.41
2023-05-02T11:08:23.139Z,9.45
2023-05-02T11:11:43.959Z,9.04
2023-05-02T11:14:48.949Z,8.85
2023-05-02T11:18:08.750Z,8.64
2023-05-02T11:21:33.431Z,8.38
2023-05-02T11:24:41.079Z,8.33
2023-05-02T11:27:46.887Z,8.11
2023-05-02T11:30:51.847Z,7.76
2023-05-02T11:33:59.443Z,7.65
2023-05-02T11:37:16.164Z,7.49
2023-05-02T11:40:19.694Z,7.48
2023-05-02T11:43:28.244Z,7.21
2023-05-02T11:46:34.605Z,7.17
2023-05-02T11:49:40.195Z,7.07
2023-05-02T11:52:45.563Z,6.91
2023-05-02T11:55:54.256Z,6.82
2023-05-02T11:59:03.745Z,6.80
2023-05-02T12:02:08.438Z,6.82
2023-05-02T12:05:14.560Z,6.63
2023-05-02T12:08:25.885Z,6.54
2023-05-02T12:11:29.779Z,6.53
2023-05-02T12:14:34.654Z,6.48
2023-05-02T12:17:41.291Z,6.46
2023-05-02T12:20:46.398Z,6.37
2023-05-02T12:23:50.597Z,6.26
2023-05-02T12:27:14.493Z,6.32
2023-05-02T12:30:27.950Z,6.13
2023-05-02T12:33:31.449Z,6.08
2023-05-02T12:36:35.837Z,6.06
2023-05-02T12:39:44.325Z,6.03
2023-05-02T12:43:08.710Z,5.92
2023-05-02T12:46:13.236Z,5.86
2023-05-02T12:49:18.518Z,5.84
2023-05-02T12:52:43.368Z,5.78
2023-05-02T12:55:47.529Z,5.71
2023-05-02T12:58:52.025Z,5.75
2023-05-02T13:01:56.260Z,5.79
2023-05-02T13:05:00.035Z,5.79
2023-05-02T13:08:04.557Z,5.75
2023-05-02T13:11:08.358Z,5.70
2023-05-02T13:14:12.570Z,5.72
2023-05-02T13:17:17.087Z,5.70
2023-05-02T13:20:20.346Z,5.62
2023-05-02T13:23:24.615Z,5.72
2023-05-02T13:26:28.388Z,5.50
2023-05-02T13:29:32.426Z,5.44
2023-05-02T13:32:36.546Z,5.37
2023-05-02T13:35:40.968Z,5.35
2023-05-02T13:38:45.035Z,5.33
2023-05-02T13:41:48.245Z,5.28
2023-05-02T13:44:51.390Z,5.34
2023-05-02T13:47:55.520Z,5.28
2023-05-02T13:50:58.877Z,5.22
2023-05-02T13:54:02.712Z,5.13
2023-05-02T13:57:06.526Z,5.08
2023-05-02T14:00:11.904Z,5.08
2023-05-02T14:03:18.643Z,5.06
2023-05-02T14:06:22.877Z,5.02
2023-05-02T14:09:26.344Z,4.98
2023-05-02T14:12:30.388Z,4.97
2023-05-02T14:15:34.291Z,4.84
2023-05-02T14:18:38.539Z,4.77
2023-05-02T14:21:42.407Z,4.79
2023-05-02T14:24:46.189Z,4.88
2023-05-02T14:27:50.472Z,4.86
2023-05-02T14:30:54.609Z,4.78
2023-05-02T14:33:58.423Z,4.76
2023-05-02T14:37:02.939Z,4.73
2023-05-02T14:40:06.960Z,4.74
2023-05-02T14:43:13.991Z,4.67
2023-05-02T14:46:17.648Z,4.51
2023-05-02T14:49:21.136Z,4.53
2023-05-02T14:52:24.433Z,4.48
2023-05-02T14:55:28.906Z,4.52
2023-05-02T14:58:32.765Z,4.61
2023-05-02T15:01:35.992Z,4.51
2023-05-02T15:04:39.874Z,4.53
2023-05-02T15:07:43.127Z,4.56
2023-05-02T15:10:46.133Z,4.54
2023-05-02T15:13:49.991Z,4.56
2023-05-02T15:16:53.319Z,4.47
2023-05-02T15:19:58.530Z,4.45
2023-05-02T15:23:04.038Z,4.55
2023-05-02T15:26:08.226Z,4.61
2023-05-02T15:29:12.616Z,4.58
2023-05-02T15:32:16.437Z,4.45
2023-05-02T15:35:20.162Z,4.53
2023-05-02T15:38:23.992Z,4.43
2023-05-02T15:41:28.145Z,4.39
2023-05-02T15:44:31.770Z,4.34
2023-05-02T15:47:35.431Z,4.16
2023-05-02T15:50:39.566Z,4.05
2023-05-02T15:53:44.754Z,3.99
2023-05-02T15:56:48.390Z,3.85
2023-05-02T15:59:52.831Z,3.86
2023-05-02T16:02:57.063Z,3.86
2023-05-02T16:06:00.867Z,3.73
2023-05-02T16:09:07.386Z,3.62
2023-05-02T16:12:11.403Z,3.62
2023-05-02T16:15:14.852Z,3.70
2023-05-02T16:18:17.884Z,3.68
2023-05-02T16:21:21.620Z,3.71
2023-05-02T16:24:25.313Z,3.73
2023-05-02T16:27:28.703Z,3.68
2023-05-02T16:30:32.398Z,3.53
2023-05-02T16:33:36.565Z,3.60
2023-05-02T16:36:39.551Z,3.62
2023-05-02T16:39:43.479Z,3.71
2023-05-02T16:42:46.324Z,3.64
2023-05-02T16:45:49.674Z,3.55
2023-05-02T16:48:52.682Z,3.37
2023-05-02T16:51:57.162Z,3.26
2023-05-02T16:55:00.163Z,3.22
2023-05-02T16:58:04.219Z,3.16
2023-05-02T17:01:08.217Z,3.11
2023-05-02T17:04:12.118Z,3.24
2023-05-02T17:07:15.911Z,3.16
2023-05-02T17:10:20.249Z,3.08
2023-05-02T17:13:24.013Z,3.16
2023-05-02T17:16:28.176Z,3.19
2023-05-02T17:19:31.982Z,3.07
2023-05-02T17:22:36.811Z,2.93
2023-05-02T17:25:40.628Z,2.85
2023-05-02T17:28:45.945Z,2.89
2023-05-02T17:31:49.771Z,2.94
2023-05-02T17:34:53.980Z,2.91
2023-05-02T17:37:57.730Z,2.83
2023-05-02T17:41:01.958Z,2.88
2023-05-02T17:44:05.983Z,3.00
2023-05-02T17:47:10.356Z,3.06
2023-05-02T17:50:14.712Z,3.07
2023-05-02T17:53:19.312Z,3.03
2023-05-02T17:56:23.063Z,3.07
2023-05-02T17:59:28.148Z,3.10
2023-05-02T18:02:31.934Z,3.02
2023-05-02T18:05:40.591Z,3.09
2023-05-02T18:08:44.993Z,3.05
2023-05-02T18:11:49.400Z,3.00
2023-05-02T18:14:53.828Z,2.90
2023-05-02T18:17:58.053Z,2.80
2023-05-02T18:21:01.689Z,2.83
2023-05-02T18:24:07.100Z,2.88
2023-05-02T18:27:10.705Z,2.70
2023-05-02T18:30:14.652Z,2.65
2023-05-02T18:33:18.330Z,2.49
2023-05-02T18:36:30.058Z,2.54
2023-05-02T18:39:34.856Z,2.56
2023-05-02T18:42:38.853Z,2.34
2023-05-02T18:45:44.818Z,2.33
2023-05-02T18:48:49.248Z,2.36
2023-05-02T18:51:55.093Z,2.36
2023-05-02T18:54:59.653Z,2.35
2023-05-02T18:58:03.096Z,2.31
2023-05-02T19:01:17.721Z,2.21
2023-05-02T19:04:21.725Z,2.16
2023-05-02T19:07:25.870Z,2.20
2023-05-02T19:10:29.968Z,2.19
2023-05-02T19:13:33.593Z,2.21
2023-05-02T19:16:40.566Z,2.18
2023-05-02T19:19:46.652Z,2.16
2023-05-02T19:22:50.646Z,2.09
2023-05-02T19:25:54.619Z,2.01
2023-05-02T19:28:58.384Z,1.90
2023-05-02T19:32:02.884Z,1.89
2023-05-02T19:35:07.729Z,1.89
2023-05-02T19:38:10.868Z,1.84
2023-05-02T19:41:15.468Z,1.93
2023-05-02T19:44:19.436Z,1.98
2023-05-02T19:47:22.974Z,1.99
2023-05-02T19:50:27.365Z,2.02
2023-05-02T19:53:34.695Z,1.99
2023-05-02T19:56:38.791Z,1.95
2023-05-02T19:59:41.883Z,2.03
2023-05-02T20:02:45.544Z,2.03
2023-05-02T20:05:52.521Z,2.16
2023-05-02T20:08:56.506Z,2.12
2023-05-02T20:12:00.186Z,2.08
2023-05-02T20:15:04.625Z,2.06
2023-05-02T20:18:08.306Z,2.07
2023-05-02T20:21:11.907Z,2.11
2023-05-02T20:24:15.487Z,2.08
2023-05-02T20:27:18.787Z,2.02
2023-05-02T20:30:22.720Z,2.01
2023-05-02T20:33:33.477Z,1.97
2023-05-02T20:36:45.170Z,1.97
2023-05-02T20:39:48.449Z,2.00
2023-05-02T20:42:51.357Z,1.96
2023-05-02T20:45:54.716Z,2.02
2023-05-02T20:48:59.970Z,1.99
2023-05-02T20:52:06.359Z,1.97
2023-05-02T20:55:10.404Z,1.85
2023-05-02T20:58:14.416Z,1.77
2023-05-02T21:01:18.147Z,1.74
2023-05-02T21:04:22.295Z,1.82
2023-05-02T21:07:26.147Z,1.76
2023-05-02T21:10:31.599Z,1.74
2023-05-02T21:13:34.519Z,1.82
2023-05-02T21:16:38.850Z,1.72
2023-05-02T21:19:42.725Z,1.59
2023-05-02T21:22:46.212Z,1.54
2023-05-02T21:25:50.052Z,1.44
2023-05-02T21:28:53.746Z,1.57
2023-05-02T21:31:57.806Z,1.71
2023-05-02T21:35:01.668Z,1.88
2023-05-02T21:38:05.733Z,1.93
2023-05-02T21:41:09.917Z,1.99
2023-05-02T21:44:14.849Z,2.06
2023-05-02T21:47:18.770Z,2.16
2023-05-02T21:50:22.607Z,2.24
2023-05-02T21:53:25.993Z,2.29
2023-05-02T21:56:28.958Z,2.53
2023-05-02T21:59:32.716Z,2.66
2023-05-02T22:02:36.448Z,2.72
2023-05-02T22:05:44.182Z,2.72
2023-05-02T22:08:47.914Z,2.76
2023-05-02T22:11:54.572Z,2.84
2023-05-02T22:14:57.635Z,3.01
2023-05-02T22:18:02.072Z,3.26
2023-05-02T22:21:05.358Z,3.20
2023-05-02T22:24:09.767Z,3.22
2023-05-02T22:27:12.888Z,3.13
2023-05-02T22:30:17.096Z,3.21
2023-05-02T22:33:20.259Z,3.16
2023-05-02T22:36:23.341Z,3.08
2023-05-02T22:39:26.436Z,3.26
2023-05-02T22:42:29.414Z,3.34
2023-05-02T22:45:33.082Z,3.26
2023-05-02T22:48:36.699Z,3.38
2023-05-02T22:51:40.682Z,3.42
2023-05-02T22:54:45.606Z,3.52
2023-05-02T22:57:48.637Z,3.68
2023-05-02T23:00:52.407Z,3.74
2023-05-02T23:03:55.998Z,3.81
2023-05-02T23:07:00.948Z,3.79
2023-05-02T23:10:05.421Z,3.93
2023-05-02T23:13:09.313Z,4.00
2023-05-02T23:16:12.643Z,4.13
2023-05-02T23:19:19.103Z,4.21
2023-05-02T23:22:22.861Z,4.08
2023-05-02T23:25:28.550Z,4.05
2023-05-02T23:28:33.134Z,4.15
2023-05-02T23:31:36.716Z,4.16
2023-05-02T23:34:40.605Z,4.45
2023-05-02T23:37:45.383Z,4.59
2023-05-02T23:40:48.938Z,4.58
2023-05-02T23:43:53.047Z,4.72
2023-05-02T23:46:56.482Z,4.98
2023-05-02T23:50:00.416Z,5.12
2023-05-02T23:53:03.945Z,5.14
2023-05-02T23:56:08.116Z,5.36
2023-05-02T23:59:11.998Z,5.49
